createdAt,value
2022-10-21T00:02:17.722Z,7.10
2022-10-21T00:04:46.188Z,7.43
2022-10-21T00:07:14.684Z,6.77
2022-10-21T00:09:43.096Z,6.93
2022-10-21T00:12:11.608Z,6.93
2022-10-21T00:14:39.898Z,6.70
2022-10-21T00:17:08.359Z,7.10
2022-10-21T00:19:39.926Z,6.77
2022-10-21T00:22:08.316Z,6.97
2022-10-21T00:24:36.807Z,7.13
2022-10-21T00:27:05.263Z,7.43
2022-10-21T00:29:34.349Z,6.87
2022-10-21T00:32:02.801Z,6.80
2022-10-21T00:34:31.224Z,7.20
2022-10-21T00:37:01.035Z,6.70
2022-10-21T00:39:29.484Z,6.90
2022-10-21T00:41:57.917Z,7.67
2022-10-21T00:44:27.707Z,6.47
2022-10-21T00:46:59.134Z,7.13
2022-10-21T00:49:33.749Z,7.23
2022-10-21T00:52:05.345Z,7.27
2022-10-21T00:54:34.189Z,7.20
2022-10-21T00:57:02.484Z,7.07
2022-10-21T00:59:35.821Z,6.63
2022-10-21T01:02:04.510Z,7.07
2022-10-21T01:04:32.951Z,7.00
2022-10-21T01:07:03.237Z,6.83
2022-10-21T01:09:32.564Z,6.90
2022-10-21T01:12:03.148Z,7.00
2022-10-21T01:14:49.013Z,6.40
2022-10-21T01:17:47.629Z,7.27
2022-10-21T01:20:39.170Z,7.17
2022-10-21T01:23:32.840Z,6.87
2022-10-21T01:26:20.839Z,7.77
2022-10-21T01:29:01.699Z,7.07
2022-10-21T01:31:34.163Z,6.77
2022-10-21T01:34:07.281Z,6.53
2022-10-21T01:36:41.636Z,7.13
2022-10-21T01:39:20.317Z,6.47
2022-10-21T01:41:55.614Z,6.70
2022-10-21T01:44:27.171Z,6.00
2022-10-21T01:46:59.408Z,6.80
2022-10-21T01:49:31.239Z,6.80
2022-10-21T01:52:01.405Z,6.90
2022-10-21T01:54:33.129Z,7.13
2022-10-21T01:57:02.340Z,7.43
2022-10-21T01:59:32.355Z,7.43
2022-10-21T02:02:03.905Z,7.67
2022-10-21T02:04:33.485Z,6.50
2022-10-21T02:07:01.832Z,7.57
2022-10-21T02:12:04.872Z,7.50
2022-10-21T02:14:35.658Z,8.37
2022-10-21T02:17:06.236Z,7.73
2022-10-21T02:19:34.681Z,7.60
2022-10-21T02:22:03.897Z,8.27
2022-10-21T02:24:39.103Z,7.10
2022-10-21T02:27:07.487Z,6.93
2022-10-21T02:29:38.058Z,6.67
2022-10-21T02:32:17.723Z,7.13
2022-10-21T02:34:59.977Z,7.43
2022-10-21T02:37:32.703Z,7.93
2022-10-21T02:40:05.376Z,7.10
2022-10-21T02:42:35.116Z,7.90
2022-10-21T02:45:04.583Z,8.13
2022-10-21T02:47:37.553Z,7.53
2022-10-21T02:50:07.338Z,7.70
2022-10-21T02:52:35.877Z,7.37
2022-10-21T02:55:05.063Z,7.77
2022-10-21T02:57:33.401Z,6.93
2022-10-21T03:00:01.808Z,7.17
2022-10-21T03:02:30.217Z,7.70
2022-10-21T03:04:59.904Z,7.27
2022-10-21T03:07:28.274Z,8.10
2022-10-21T03:09:56.653Z,7.30
2022-10-21T03:12:25.107Z,7.67
2022-10-21T03:14:53.506Z,7.73
2022-10-21T03:17:25.112Z,7.47
2022-10-21T03:19:54.010Z,7.30
2022-10-21T03:22:23.619Z,7.67
2022-10-21T03:24:52.017Z,8.03
2022-10-21T03:27:20.476Z,7.20
2022-10-21T03:29:48.880Z,6.93
2022-10-21T03:32:17.293Z,7.70
2022-10-21T03:34:45.790Z,6.87
2022-10-21T03:37:14.161Z,7.63
2022-10-21T03:39:44.547Z,7.70
2022-10-21T03:42:12.902Z,7.43
2022-10-21T03:44:41.644Z,7.93
2022-10-21T03:47:10.205Z,7.33
2022-10-21T03:49:38.559Z,7.73
2022-10-21T03:52:07.142Z,8.63
2022-10-21T03:54:35.612Z,7.90
2022-10-21T03:57:05.534Z,8.33
2022-10-21T03:59:33.943Z,8.40
2022-10-21T04:02:02.332Z,8.10
2022-10-21T04:07:53.150Z,8.13
2022-10-21T04:10:22.017Z,8.23
2022-10-21T04:12:51.743Z,7.57
2022-10-21T04:15:20.433Z,9.13
2022-10-21T04:17:48.997Z,7.83
2022-10-21T04:20:17.710Z,8.00
2022-10-21T04:22:46.027Z,8.43
2022-10-21T04:25:20.610Z,8.00
2022-10-21T04:28:51.642Z,8.80
2022-10-21T04:31:33.246Z,8.17
2022-10-21T04:34:02.035Z,8.13
2022-10-21T04:36:30.637Z,7.80
2022-10-21T04:38:59.069Z,8.93
2022-10-21T04:41:28.389Z,8.70
2022-10-21T04:43:58.048Z,8.27
2022-10-21T04:46:27.923Z,8.53
2022-10-21T04:48:56.279Z,9.23
2022-10-21T04:51:24.911Z,9.37
2022-10-21T04:54:03.133Z,9.70
2022-10-21T04:56:31.751Z,8.57
2022-10-21T04:59:01.463Z,8.97
2022-10-21T05:01:30.250Z,9.17
2022-10-21T05:03:58.769Z,9.63
2022-10-21T05:06:27.203Z,8.67
2022-10-21T05:08:55.795Z,9.60
2022-10-21T05:11:24.262Z,9.60
2022-10-21T05:13:52.646Z,8.43
2022-10-21T05:20:42.504Z,9.37
2022-10-21T05:23:41.944Z,9.30
2022-10-21T05:26:10.635Z,9.93
2022-10-21T05:28:39.266Z,9.27
2022-10-21T05:31:07.575Z,9.27
2022-10-21T05:33:37.276Z,9.20
2022-10-21T05:36:07.788Z,9.27
2022-10-21T05:38:57.735Z,9.17
2022-10-21T05:41:29.703Z,9.13
2022-10-21T05:43:58.156Z,8.97
2022-10-21T05:46:26.593Z,8.23
2022-10-21T05:48:56.345Z,8.97
2022-10-21T05:51:26.521Z,9.87
2022-10-21T05:53:55.162Z,9.63
2022-10-21T05:56:23.679Z,8.37
2022-10-21T05:58:52.383Z,9.10
2022-10-21T06:01:20.868Z,8.83
2022-10-21T06:03:50.135Z,9.30
2022-10-21T06:06:20.173Z,8.60
2022-10-21T06:08:48.580Z,8.70
2022-10-21T06:11:18.767Z,9.40
2022-10-21T06:15:05.714Z,8.53
2022-10-21T06:18:12.633Z,8.30
2022-10-21T06:21:32.625Z,9.60
2022-10-21T06:24:32.149Z,9.17
2022-10-21T06:28:00.181Z,8.47
2022-10-21T06:30:28.911Z,8.57
2022-10-21T06:36:21.176Z,7.60
2022-10-21T06:39:06.799Z,9.13
2022-10-21T06:41:52.368Z,8.70
2022-10-21T06:44:40.756Z,8.77
2022-10-21T06:47:09.327Z,7.97
2022-10-21T06:49:37.773Z,8.27
2022-10-21T06:52:07.726Z,9.83
2022-10-21T06:54:36.181Z,9.10
2022-10-21T06:57:04.867Z,8.90
2022-10-21T06:59:33.323Z,8.80
2022-10-21T07:02:01.827Z,8.67
2022-10-21T07:04:30.381Z,8.13
2022-10-21T07:06:59.191Z,8.67
2022-10-21T07:09:29.108Z,8.50
2022-10-21T07:11:57.586Z,8.47
2022-10-21T07:14:26.380Z,9.03
2022-10-21T07:16:54.899Z,8.77
2022-10-21T07:19:23.335Z,9.33
2022-10-21T07:21:51.968Z,10.57
2022-10-21T07:24:22.760Z,8.83
2022-10-21T07:26:52.784Z,9.03
2022-10-21T07:29:21.772Z,8.20
2022-10-21T07:31:50.117Z,8.83
2022-10-21T07:34:18.992Z,7.80
2022-10-21T07:36:52.523Z,8.63
2022-10-21T07:39:24.088Z,9.00
2022-10-21T07:41:55.369Z,10.13
2022-10-21T07:44:25.364Z,9.77
2022-10-21T07:46:54.655Z,9.90
2022-10-21T07:49:24.486Z,9.13
2022-10-21T07:51:53.788Z,9.47
2022-10-21T07:54:22.292Z,8.43
2022-10-21T07:56:53.306Z,8.40
2022-10-21T07:59:23.809Z,8.77
2022-10-21T08:01:53.096Z,7.83
2022-10-21T08:04:24.692Z,8.73
2022-10-21T08:06:53.264Z,8.13
2022-10-21T08:09:23.110Z,8.33
2022-10-21T08:11:53.082Z,8.40
2022-10-21T08:14:21.875Z,7.37
2022-10-21T08:16:52.826Z,8.13
2022-10-21T08:19:27.226Z,8.10
2022-10-21T08:21:56.248Z,7.70
2022-10-21T08:24:24.942Z,7.50
2022-10-21T08:26:54.997Z,8.03
2022-10-21T08:29:26.053Z,7.83
2022-10-21T08:31:55.269Z,8.60
2022-10-21T08:34:23.714Z,8.07
2022-10-21T08:36:52.200Z,8.03
2022-10-21T08:39:20.783Z,8.53
2022-10-21T08:42:07.647Z,7.87
2022-10-21T08:44:40.554Z,7.87
2022-10-21T08:47:16.350Z,8.43
2022-10-21T08:49:55.094Z,8.83
2022-10-21T08:52:26.437Z,8.27
2022-10-21T08:54:58.128Z,7.93
2022-10-21T08:57:28.662Z,7.30
2022-10-21T08:59:57.157Z,7.37
2022-10-21T09:02:30.795Z,7.97
2022-10-21T09:08:03.272Z,8.67
2022-10-21T09:10:51.452Z,8.57
2022-10-21T09:13:56.578Z,8.40
2022-10-21T09:16:28.709Z,9.67
2022-10-21T09:19:03.143Z,8.60
2022-10-21T09:21:36.774Z,8.73
2022-10-21T09:24:08.401Z,9.47
2022-10-21T09:26:39.912Z,9.63
2022-10-21T09:29:31.924Z,9.17
2022-10-21T09:32:10.430Z,10.07
2022-10-21T09:34:45.493Z,9.07
2022-10-21T09:37:19.888Z,9.80
2022-10-21T09:39:50.232Z,10.53
2022-10-21T09:42:35.748Z,9.00
2022-10-21T09:45:21.125Z,9.10
2022-10-21T09:47:55.306Z,9.13
2022-10-21T09:50:23.668Z,9.07
2022-10-21T09:52:58.977Z,9.57
2022-10-21T09:55:28.358Z,10.30
2022-10-21T09:57:59.268Z,10.00
2022-10-21T10:00:47.176Z,8.93
2022-10-21T10:03:31.046Z,8.93
2022-10-21T10:06:00.064Z,9.83
2022-10-21T10:08:35.187Z,9.67
2022-10-21T10:11:06.521Z,9.27
2022-10-21T10:13:34.870Z,8.77
2022-10-21T10:16:24.066Z,8.47
2022-10-21T10:18:54.199Z,9.07
2022-10-21T10:21:23.328Z,9.53
2022-10-21T10:23:53.336Z,9.00
2022-10-21T10:26:25.168Z,9.87
2022-10-21T10:28:56.396Z,9.03
2022-10-21T10:31:32.418Z,8.53
2022-10-21T10:34:03.963Z,9.13
2022-10-21T10:36:36.034Z,8.70
2022-10-21T10:39:07.596Z,8.50
2022-10-21T10:41:39.430Z,8.87
2022-10-21T10:44:13.614Z,8.60
2022-10-21T10:46:44.211Z,9.63
2022-10-21T10:49:24.852Z,8.80
2022-10-21T10:52:07.203Z,9.00
2022-10-21T10:54:35.719Z,8.93
2022-10-21T10:57:06.408Z,9.60
2022-10-21T10:59:44.790Z,8.13
2022-10-21T11:02:35.111Z,8.87
2022-10-21T11:05:20.619Z,8.37
2022-10-21T11:07:51.592Z,8.80
2022-10-21T11:10:33.742Z,9.03
2022-10-21T11:13:04.025Z,8.80
2022-10-21T11:15:53.014Z,9.00
2022-10-21T11:18:26.987Z,9.53
2022-10-21T11:21:02.670Z,9.00
2022-10-21T11:23:55.618Z,9.90
2022-10-21T11:26:30.739Z,9.70
2022-10-21T11:29:05.447Z,9.30
2022-10-21T11:31:53.706Z,9.67
2022-10-21T11:34:34.920Z,9.57
2022-10-21T11:37:07.911Z,9.33
2022-10-21T11:39:47.199Z,9.60
2022-10-21T11:42:20.857Z,8.17
2022-10-21T11:45:00.076Z,9.33
2022-10-21T11:47:33.911Z,10.00
2022-10-21T11:50:13.008Z,9.07
2022-10-21T11:52:50.653Z,9.10
2022-10-21T11:55:39.224Z,9.93
2022-10-21T11:58:22.392Z,9.50
2022-10-21T12:00:55.477Z,10.43
2022-10-21T12:03:40.848Z,11.17
2022-10-21T12:06:22.087Z,9.80
2022-10-21T12:08:54.955Z,10.63
2022-10-21T12:11:26.559Z,11.00
2022-10-21T12:13:57.948Z,11.33
2022-10-21T12:16:29.460Z,10.77
2022-10-21T12:19:00.923Z,10.50
2022-10-21T12:21:33.174Z,11.90
2022-10-21T12:24:06.168Z,10.23
2022-10-21T12:29:16.051Z,11.00
2022-10-21T12:31:48.888Z,10.60
2022-10-21T12:34:17.365Z,10.33
2022-10-21T12:36:49.460Z,11.43
2022-10-21T12:39:21.653Z,12.07
2022-10-21T12:41:50.102Z,11.70
2022-10-21T12:44:25.933Z,13.03
2022-10-21T12:46:56.753Z,10.93
2022-10-21T12:49:28.210Z,11.60
2022-10-21T12:52:04.727Z,10.80
2022-10-21T12:54:41.649Z,11.70
2022-10-21T12:57:13.209Z,11.67
2022-10-21T12:59:43.308Z,11.67
2022-10-21T13:02:28.179Z,11.10
2022-10-21T13:05:30.402Z,9.87
2022-10-21T13:08:27.497Z,11.47
2022-10-21T13:11:24.698Z,11.70
2022-10-21T13:14:27.053Z,11.07
2022-10-21T13:17:15.332Z,11.80
2022-10-21T13:19:43.726Z,12.17
2022-10-21T13:22:13.662Z,12.47
2022-10-21T13:24:43.582Z,12.47
2022-10-21T13:27:27.712Z,12.80
2022-10-21T13:29:59.775Z,13.00
2022-10-21T13:32:30.072Z,13.53
2022-10-21T13:35:23.938Z,12.07
2022-10-21T13:37:56.399Z,11.53
2022-10-21T13:40:31.232Z,11.00
2022-10-21T13:43:01.976Z,11.27
2022-10-21T13:45:31.789Z,10.43
2022-10-21T13:48:02.779Z,10.40
2022-10-21T13:50:34.015Z,10.07
2022-10-21T13:53:50.178Z,10.57
2022-10-21T13:56:25.889Z,10.67
2022-10-21T13:58:54.386Z,10.33
2022-10-21T14:01:25.560Z,9.43
2022-10-21T14:03:54.871Z,10.03
2022-10-21T14:06:30.673Z,10.10
2022-10-21T14:09:00.886Z,9.43
2022-10-21T14:11:36.405Z,10.23
2022-10-21T14:14:09.559Z,9.40
2022-10-21T14:16:40.236Z,9.37
2022-10-21T14:19:10.875Z,8.93
2022-10-21T14:21:40.886Z,8.87
2022-10-21T14:24:24.943Z,9.00
2022-10-21T14:26:55.033Z,8.23
2022-10-21T14:29:52.332Z,8.93
2022-10-21T14:32:27.233Z,8.93
2022-10-21T14:35:36.204Z,8.37
2022-10-21T14:38:23.089Z,8.13
2022-10-21T14:40:57.924Z,7.13
2022-10-21T14:43:35.226Z,7.10
2022-10-21T14:46:06.199Z,6.80
2022-10-21T14:48:36.392Z,6.77
2022-10-21T14:51:07.649Z,5.90
2022-10-21T14:53:38.144Z,5.90
2022-10-21T14:56:08.169Z,5.73
2022-10-21T14:58:39.362Z,5.90
2022-10-21T15:01:12.945Z,5.17
2022-10-21T15:03:58.892Z,4.73
2022-10-21T15:06:29.619Z,4.17
2022-10-21T15:12:45.145Z,3.43
2022-10-21T15:15:53.414Z,3.33
2022-10-21T15:18:24.407Z,3.20
2022-10-21T15:20:55.271Z,3.10
2022-10-21T15:23:27.171Z,2.90
2022-10-21T15:26:00.031Z,3.77
2022-10-21T15:28:31.225Z,3.10
2022-10-21T15:31:02.357Z,2.70
2022-10-21T15:33:31.367Z,3.70
2022-10-21T15:36:04.136Z,3.40
2022-10-21T15:38:32.622Z,3.00
2022-10-21T15:41:00.946Z,3.40
2022-10-21T15:43:29.562Z,2.77
2022-10-21T15:45:57.940Z,3.20
2022-10-21T15:48:28.094Z,2.37
2022-10-21T15:50:57.883Z,2.53
2022-10-21T15:53:26.408Z,3.17
2022-10-21T15:55:57.665Z,2.83
2022-10-21T15:58:26.275Z,3.93
2022-10-21T16:00:54.963Z,4.17
2022-10-21T16:03:23.752Z,4.80
2022-10-21T16:05:53.758Z,4.20
2022-10-21T16:08:22.512Z,3.67
2022-10-21T16:10:51.172Z,4.10
2022-10-21T16:13:19.815Z,4.10
2022-10-21T16:15:48.428Z,4.10
2022-10-21T16:18:16.995Z,4.33
2022-10-21T16:20:45.485Z,3.83
2022-10-21T16:23:15.304Z,4.20
2022-10-21T16:25:43.693Z,4.40
2022-10-21T16:28:12.403Z,4.23
2022-10-21T16:30:41.824Z,4.60
2022-10-21T16:33:11.289Z,3.63
2022-10-21T16:35:39.855Z,4.13
2022-10-21T16:38:08.236Z,4.03
2022-10-21T16:40:38.182Z,3.53
2022-10-21T16:43:06.557Z,3.07
2022-10-21T16:45:35.592Z,3.27
2022-10-21T16:48:05.259Z,3.60
2022-10-21T16:50:39.324Z,3.97
2022-10-21T16:53:08.469Z,3.97
2022-10-21T16:55:38.347Z,4.47
2022-10-21T16:58:06.692Z,5.00
2022-10-21T17:00:35.416Z,4.43
2022-10-21T17:03:03.948Z,4.90
2022-10-21T17:06:23.386Z,5.50
2022-10-21T17:08:58.679Z,5.10
2022-10-21T17:11:31.908Z,5.87
2022-10-21T17:14:00.631Z,6.67
2022-10-21T17:16:29.190Z,6.47
2022-10-21T17:18:57.688Z,6.00
2022-10-21T17:21:27.748Z,5.43
2022-10-21T17:23:56.869Z,5.90
2022-10-21T17:26:25.960Z,4.67
2022-10-21T17:28:56.906Z,4.70
2022-10-21T17:31:26.987Z,4.37
2022-10-21T17:33:56.583Z,4.50
2022-10-21T17:36:24.809Z,4.50
2022-10-21T17:38:53.388Z,3.80
2022-10-21T17:41:21.942Z,3.73
2022-10-21T17:43:50.458Z,4.40
2022-10-21T17:46:21.951Z,4.17
2022-10-21T17:48:51.373Z,3.70
2022-10-21T17:51:27.136Z,3.27
2022-10-21T17:53:56.335Z,3.57
2022-10-21T17:56:31.232Z,3.30
2022-10-21T17:59:26.739Z,3.60
2022-10-21T18:02:25.000Z,3.30
2022-10-21T18:04:53.332Z,3.57
2022-10-21T18:07:21.761Z,3.97
2022-10-21T18:09:50.101Z,4.57
2022-10-21T18:12:18.505Z,4.90
2022-10-21T18:14:46.897Z,4.87
2022-10-21T18:17:15.981Z,5.40
2022-10-21T18:19:46.722Z,5.13
2022-10-21T18:22:15.623Z,5.23
2022-10-21T18:24:44.018Z,4.87
2022-10-21T18:30:42.908Z,18.53
2022-10-21T18:33:11.476Z,33.70
2022-10-21T18:35:42.538Z,16.87
2022-10-21T18:38:11.006Z,9.67
2022-10-21T18:40:43.690Z,7.93
2022-10-21T18:43:19.802Z,8.10
2022-10-21T18:46:17.478Z,11.43
2022-10-21T18:48:46.079Z,12.60
2022-10-21T18:51:17.682Z,12.53
2022-10-21T18:53:49.785Z,12.17
2022-10-21T18:56:21.616Z,12.83
2022-10-21T18:58:50.467Z,12.30
2022-10-21T19:01:19.966Z,12.00
2022-10-21T19:03:54.013Z,15.90
2022-10-21T19:06:37.221Z,13.60
2022-10-21T19:09:09.270Z,11.67
2022-10-21T19:11:59.466Z,12.07
2022-10-21T19:14:48.179Z,8.57
2022-10-21T19:17:28.533Z,10.87
2022-10-21T19:20:33.225Z,11.57
2022-10-21T19:23:03.045Z,11.87
2022-10-21T19:25:31.558Z,11.53
2022-10-21T19:28:00.145Z,12.47
2022-10-21T19:30:29.746Z,11.80
2022-10-21T19:33:00.215Z,11.50
2022-10-21T19:35:29.183Z,11.13
2022-10-21T19:38:00.627Z,12.00
2022-10-21T19:40:32.988Z,10.97
2022-10-21T19:43:01.350Z,10.30
2022-10-21T19:45:30.345Z,11.63
2022-10-21T19:47:58.916Z,12.53
2022-10-21T19:50:27.434Z,14.33
2022-10-21T19:52:55.925Z,12.83
2022-10-21T19:55:24.697Z,11.90
2022-10-21T19:57:54.532Z,11.43
2022-10-21T20:00:22.877Z,9.60
2022-10-21T20:02:51.267Z,8.53
2022-10-21T20:05:19.753Z,8.73
2022-10-21T20:07:48.202Z,8.47
2022-10-21T20:10:20.184Z,8.60
2022-10-21T20:12:48.599Z,7.60
2022-10-21T20:15:18.460Z,7.33
2022-10-21T20:17:46.924Z,7.67
2022-10-21T20:20:15.724Z,6.87
2022-10-21T20:22:52.208Z,7.57
2022-10-21T20:25:21.546Z,7.83
2022-10-21T20:27:50.128Z,7.50
2022-10-21T20:30:19.796Z,6.93
2022-10-21T20:32:52.753Z,7.83
2022-10-21T20:35:21.411Z,7.23
2022-10-21T20:37:49.928Z,7.30
2022-10-21T20:40:20.250Z,10.60
2022-10-21T20:42:49.824Z,9.23
2022-10-21T20:45:20.153Z,8.97
2022-10-21T20:47:48.639Z,9.67
2022-10-21T20:50:17.179Z,8.53
2022-10-21T20:52:45.578Z,9.07
2022-10-21T20:55:14.015Z,8.93
2022-10-21T20:57:42.641Z,8.17
2022-10-21T21:00:12.353Z,9.07
2022-10-21T21:02:42.085Z,7.77
2022-10-21T21:05:10.944Z,8.57
2022-10-21T21:07:39.651Z,10.33
2022-10-21T21:10:09.070Z,10.27
2022-10-21T21:12:37.941Z,9.93
2022-10-21T21:15:07.671Z,10.10
2022-10-21T21:17:36.075Z,9.80
2022-10-21T21:20:06.922Z,10.27
2022-10-21T21:22:36.454Z,9.80
2022-10-21T21:25:05.442Z,8.87
2022-10-21T21:27:33.907Z,9.60
2022-10-21T21:32:30.703Z,8.50
2022-10-21T21:35:03.522Z,6.77
2022-10-21T21:37:36.017Z,7.30
2022-10-21T21:40:06.764Z,7.27
2022-10-21T21:43:13.876Z,7.27
2022-10-21T21:45:47.913Z,7.63
2022-10-21T21:50:50.487Z,7.63
2022-10-21T21:53:24.845Z,8.10
2022-10-21T21:55:53.274Z,7.90
2022-10-21T21:58:21.697Z,9.53
2022-10-21T22:00:50.443Z,11.17
2022-10-21T22:03:21.617Z,9.93
2022-10-21T22:05:50.648Z,9.27
2022-10-21T22:08:21.090Z,8.93
2022-10-21T22:10:49.733Z,8.90
2022-10-21T22:13:18.163Z,7.87
2022-10-21T22:15:48.344Z,9.10
2022-10-21T22:18:17.486Z,8.93
2022-10-21T22:20:46.631Z,7.87
2022-10-21T22:23:16.466Z,8.33
2022-10-21T22:25:46.223Z,7.50
2022-10-21T22:28:15.084Z,8.80
2022-10-21T22:30:44.558Z,8.90
2022-10-21T22:33:14.513Z,9.07
2022-10-21T22:35:43.767Z,8.43
2022-10-21T22:38:12.889Z,8.47
2022-10-21T22:40:41.823Z,8.93
2022-10-21T22:43:11.868Z,8.33
2022-10-21T22:45:40.571Z,8.50
2022-10-21T22:48:09.266Z,8.07
2022-10-21T22:50:38.109Z,9.80
2022-10-21T22:53:06.784Z,8.57
2022-10-21T22:55:35.416Z,9.30
2022-10-21T22:58:04.028Z,8.47
2022-10-21T23:00:34.336Z,8.77
2022-10-21T23:03:06.159Z,8.20
2022-10-21T23:05:37.666Z,8.23
2022-10-21T23:08:06.275Z,8.37
2022-10-21T23:10:34.829Z,8.63
2022-10-21T23:13:05.396Z,7.73
2022-10-21T23:15:35.598Z,8.20
2022-10-21T23:18:04.223Z,7.90
2022-10-21T23:20:32.599Z,7.93
2022-10-21T23:23:01.190Z,8.57
2022-10-21T23:25:29.846Z,7.70
2022-10-21T23:27:58.195Z,9.07
2022-10-21T23:30:26.706Z,7.93
2022-10-21T23:32:56.756Z,9.13
2022-10-21T23:35:25.172Z,8.53
2022-10-21T23:37:53.616Z,8.73
2022-10-21T23:40:22.108Z,8.73
2022-10-21T23:42:50.512Z,8.97
2022-10-21T23:45:18.921Z,8.77
2022-10-21T23:47:47.540Z,9.40
2022-10-21T23:50:17.489Z,8.43
2022-10-21T23:52:46.102Z,8.30
2022-10-21T23:55:14.863Z,8.30
2022-10-21T23:57:43.689Z,8.20
